createdAt,value
2022-12-24T00:09:40.764Z,2.57
2022-12-24T00:19:43.261Z,2.10
2022-12-24T00:29:44.926Z,2.10
2022-12-24T00:39:46.661Z,2.03
2022-12-24T00:56:03.076Z,2.37
2022-12-24T01:06:10.238Z,2.77
2022-12-24T01:16:18.319Z,1.97
2022-12-24T01:26:20.007Z,2.30
2022-12-24T01:36:21.668Z,2.40
2022-12-24T01:46:23.284Z,2.70
2022-12-24T01:56:26.253Z,2.50
2022-12-24T02:06:27.909Z,1.80
2022-12-24T02:17:00.490Z,2.07
2022-12-24T02:27:17.261Z,2.60
2022-12-24T02:37:26.264Z,2.20
2022-12-24T02:47:31.005Z,2.50
2022-12-24T02:57:44.159Z,2.10
2022-12-24T03:08:03.603Z,2.47
2022-12-24T03:18:08.529Z,2.50
2022-12-24T03:28:14.865Z,2.30
2022-12-24T03:38:16.534Z,2.30
2022-12-24T03:48:18.201Z,2.17
2022-12-24T03:58:19.858Z,2.33
2022-12-24T04:08:21.512Z,1.90
2022-12-24T04:18:23.172Z,2.57
2022-12-24T04:28:24.823Z,2.20
2022-12-24T04:38:26.916Z,1.90
2022-12-24T04:48:28.571Z,1.90
2022-12-24T04:58:30.478Z,2.43
2022-12-24T05:08:32.337Z,1.80
2022-12-24T05:18:34.106Z,2.40
2022-12-24T05:28:35.859Z,1.93
2022-12-24T05:38:37.757Z,3.17
2022-12-24T05:48:39.430Z,2.80
2022-12-24T05:58:42.070Z,2.30
2022-12-24T06:08:43.744Z,2.40
2022-12-24T06:18:46.188Z,2.37
2022-12-24T06:28:49.147Z,2.67
2022-12-24T06:38:51.801Z,2.63
2022-12-24T06:48:55.050Z,9.97
2022-12-24T06:59:00.202Z,2.83
2022-12-24T07:09:06.617Z,3.10
2022-12-24T07:19:08.282Z,2.73
2022-12-24T07:29:10.337Z,3.10
2022-12-24T07:39:12.441Z,2.97
2022-12-24T07:49:14.097Z,3.00
2022-12-24T07:59:15.822Z,2.97
2022-12-24T08:09:17.511Z,3.17
2022-12-24T08:19:19.393Z,3.17
2022-12-24T08:29:21.042Z,2.70
2022-12-24T08:39:23.179Z,3.07
2022-12-24T08:49:24.812Z,3.10
2022-12-24T08:59:26.469Z,3.47
2022-12-24T09:09:32.728Z,3.23
2022-12-24T09:19:39.322Z,3.20
2022-12-24T09:29:40.949Z,4.10
2022-12-24T09:39:43.030Z,3.73
2022-12-24T09:49:49.642Z,3.70
2022-12-24T09:59:51.961Z,3.40
2022-12-24T10:10:25.656Z,3.40
2022-12-24T10:20:59.016Z,3.70
2022-12-24T10:31:05.590Z,3.63
2022-12-24T10:41:08.502Z,4.20
2022-12-24T10:51:21.308Z,3.57
2022-12-24T11:01:46.896Z,4.37
2022-12-24T11:11:49.349Z,4.13
2022-12-24T11:21:59.810Z,12.47
2022-12-24T11:32:18.627Z,3.67
2022-12-24T11:42:33.281Z,3.47
2022-12-24T11:52:35.615Z,3.17
2022-12-24T12:02:39.826Z,3.30
2022-12-24T12:12:45.598Z,3.53
2022-12-24T12:23:00.684Z,10.50
2022-12-24T12:33:51.658Z,3.67
2022-12-24T12:44:20.959Z,3.40
2022-12-24T12:54:34.542Z,3.50
2022-12-24T13:12:43.992Z,3.47
2022-12-24T13:22:56.203Z,3.57
2022-12-24T13:32:57.874Z,3.70
2022-12-24T13:42:59.578Z,3.70
2022-12-24T13:53:01.719Z,3.30
2022-12-24T14:03:35.712Z,3.90
2022-12-24T14:13:40.512Z,4.30
2022-12-24T14:24:04.309Z,3.77
2022-12-24T14:34:13.188Z,4.10
2022-12-24T14:44:29.608Z,3.20
2022-12-24T14:54:41.919Z,3.40
2022-12-24T15:04:43.553Z,3.83
2022-12-24T15:14:45.939Z,4.10
2022-12-24T15:24:48.097Z,4.47
2022-12-24T15:34:55.070Z,4.10
2022-12-24T15:45:03.792Z,4.53
2022-12-24T15:55:05.801Z,4.50
2022-12-24T16:05:26.154Z,4.93
2022-12-24T16:15:27.961Z,5.00
2022-12-24T16:25:30.200Z,8.37
2022-12-24T16:35:33.483Z,7.23
2022-12-24T16:45:37.228Z,6.60
2022-12-24T16:55:38.912Z,8.20
2022-12-24T17:05:42.389Z,9.50
2022-12-24T17:15:44.026Z,8.83
2022-12-24T17:25:46.497Z,10.40
2022-12-24T17:35:49.209Z,6.70
2022-12-24T17:45:50.849Z,8.60
2022-12-24T17:55:52.478Z,6.60
2022-12-24T18:05:54.226Z,4.30
2022-12-24T18:15:56.312Z,4.53
2022-12-24T18:26:02.482Z,4.37
2022-12-24T18:36:04.938Z,3.77
2022-12-24T18:46:08.594Z,4.20
2022-12-24T18:56:16.671Z,4.77
2022-12-24T19:06:19.366Z,5.00
2022-12-24T19:16:22.187Z,4.33
2022-12-24T19:26:24.568Z,4.30
2022-12-24T19:36:29.070Z,4.90
2022-12-24T19:46:33.001Z,4.60
2022-12-24T19:56:35.298Z,4.73
2022-12-24T20:06:36.981Z,5.90
2022-12-24T20:16:38.804Z,6.80
2022-12-24T20:26:40.513Z,9.50
2022-12-24T20:36:42.639Z,9.13
2022-12-24T20:46:44.337Z,8.57
2022-12-24T20:56:45.941Z,8.37
2022-12-24T21:06:59.683Z,8.80
2022-12-24T21:17:01.433Z,9.37
2022-12-24T21:27:03.164Z,10.20
2022-12-24T21:37:04.895Z,10.17
2022-12-24T21:47:07.873Z,10.13
2022-12-24T21:57:28.806Z,10.00
2022-12-24T22:07:49.180Z,10.50
2022-12-24T22:17:50.855Z,9.67
2022-12-24T22:27:52.498Z,9.33
2022-12-24T22:37:59.630Z,8.60
2022-12-24T22:48:01.895Z,8.43
2022-12-24T22:58:04.294Z,8.67
2022-12-24T23:08:07.303Z,9.13
2022-12-24T23:18:09.495Z,9.37
2022-12-24T23:28:11.205Z,10.30
2022-12-24T23:38:12.824Z,10.33
2022-12-24T23:48:15.579Z,9.77
2022-12-24T23:58:17.212Z,9.80
